Weather

BOSCOMBE DOWN (EGDM)

METAR

EGDM 200920Z 33005KT CAVOK M00/M01 Q1048 NOSIG RMK BLACKBLU BLU

TAF

TAF EGDM 130455Z 1306/1324 17015KT 9999 -RA BKN015 TEMPO 1306/1312 17018G28KT 6000 -RADZ BKN010 PROB30 TEMPO 1306/1315 3000 RADZ BKN006 BECMG 1312/1315 BKN008

BRISTOL AIRPORT (EGGD)

METAR

EGGD 200950Z AUTO 25004KT 9999 NCD 04/02 Q1048

TAF

TAF EGGD 200500Z 2006/2106 28005KT CAVOK TEMPO 2006/2010 9000 TEMPO 2102/2106 7000

BRIZE NORTON (EGVN)

METAR

EGVN 200920Z 26004KT 0250 FZFG BKN000 M01/M01 Q1048 BECMG 3000 BR FEW002 RMK RED BECMG YLO1

TAF

TAF AMD EGVN 200820Z 2009/2109 VRB03KT 0500 FZFG SCT001 BECMG 2009/2010 5000 BR FEW004 BECMG 2010/2012 CAVOK PROB40 2022/2106 5000 BR PROB30 2103/2106 0200 FZFG VV///

OXFORD (EGTK)

METAR

EGTK 200950Z 25004KT 3500 BR NSC 01/01 Q1048

Pressure charts

Click to see pressure charts
(redidrection to MetOffice website)